createdAt,value
2019-04-11T00:00:28.369Z,43.77
2019-04-11T00:03:00.890Z,43.47
2019-04-11T00:05:35.343Z,42.80
2019-04-11T00:08:05.983Z,43.77
2019-04-11T00:10:37.515Z,43.10
2019-04-11T00:13:18.898Z,45.73
2019-04-11T00:15:46.734Z,43.30
2019-04-11T00:18:18.632Z,42.57
2019-04-11T00:20:56.146Z,42.37
2019-04-11T00:23:26.086Z,41.37
2019-04-11T00:25:56.000Z,43.97
2019-04-11T00:28:25.879Z,41.47
2019-04-11T00:30:56.605Z,42.63
2019-04-11T00:33:29.881Z,42.03
2019-04-11T00:36:00.270Z,41.60
2019-04-11T00:38:32.636Z,42.10
2019-04-11T00:41:02.429Z,42.27
2019-04-11T00:43:37.686Z,42.87
2019-04-11T00:46:04.380Z,45.00
2019-04-11T00:48:38.778Z,40.63
2019-04-11T00:51:09.718Z,41.10
2019-04-11T00:53:40.368Z,40.33
2019-04-11T00:56:15.791Z,42.87
2019-04-11T00:58:50.107Z,42.17
2019-04-11T01:01:21.860Z,40.87
2019-04-11T01:03:51.873Z,42.57
2019-04-11T01:06:22.459Z,41.23
2019-04-11T01:08:56.134Z,40.93
2019-04-11T01:11:25.876Z,39.73
2019-04-11T01:14:05.679Z,40.10
2019-04-11T01:16:54.333Z,41.37
2019-04-11T01:19:26.939Z,39.57
2019-04-11T01:21:59.203Z,41.13
2019-04-11T01:24:29.240Z,40.37
2019-04-11T01:26:59.344Z,39.87
2019-04-11T01:29:29.297Z,39.17
2019-04-11T01:32:02.333Z,39.70
2019-04-11T01:34:37.085Z,38.83
2019-04-11T01:37:11.413Z,39.47
2019-04-11T01:39:59.370Z,38.97
2019-04-11T01:42:29.795Z,37.90
2019-04-11T01:44:59.586Z,39.73
2019-04-11T01:48:07.041Z,39.63
2019-04-11T01:50:39.130Z,37.17
2019-04-11T01:53:10.992Z,38.10
2019-04-11T01:55:41.238Z,38.33
2019-04-11T01:58:11.067Z,38.40
2019-04-11T02:01:08.656Z,38.77
2019-04-11T02:03:57.637Z,38.73
2019-04-11T02:06:29.913Z,38.63
2019-04-11T02:09:08.177Z,36.70
2019-04-11T02:11:39.527Z,37.13
2019-04-11T02:14:16.178Z,37.37
2019-04-11T02:16:43.293Z,38.00
2019-04-11T02:19:14.081Z,37.80
2019-04-11T02:21:44.164Z,38.37
2019-04-11T02:24:37.625Z,37.17
2019-04-11T02:27:24.797Z,35.23
2019-04-11T02:29:55.609Z,36.53
2019-04-11T02:32:28.667Z,37.93
2019-04-11T02:35:02.476Z,36.60
2019-04-11T02:37:33.471Z,36.17
2019-04-11T02:40:05.506Z,36.83
2019-04-11T02:42:43.196Z,35.97
2019-04-11T02:45:27.916Z,38.53
2019-04-11T02:47:48.199Z,35.93
2019-04-11T02:50:19.732Z,36.23
2019-04-11T02:52:51.909Z,35.83
2019-04-11T02:55:27.142Z,35.70
2019-04-11T02:57:59.076Z,34.70
2019-04-11T03:00:29.171Z,36.63
2019-04-11T03:03:01.663Z,34.93
2019-04-11T03:05:35.142Z,37.20
2019-04-11T03:08:07.972Z,35.73
2019-04-11T03:10:37.755Z,36.40
2019-04-11T03:13:08.383Z,34.77
2019-04-11T03:15:57.260Z,34.50
2019-04-11T03:18:33.149Z,35.80
2019-04-11T03:20:49.762Z,34.47
2019-04-11T03:23:21.095Z,37.83
2019-04-11T03:25:54.226Z,37.67
2019-04-11T03:28:28.124Z,34.90
2019-04-11T03:31:30.385Z,37.97
2019-04-11T03:38:55.170Z,34.40
2019-04-11T03:41:25.339Z,36.17
2019-04-11T03:43:50.870Z,35.60
2019-04-11T03:46:30.991Z,34.73
2019-04-11T03:49:00.190Z,34.27
2019-04-11T03:51:27.720Z,36.27
2019-04-11T03:53:59.176Z,33.13
2019-04-11T03:56:29.509Z,35.83
2019-04-11T03:59:01.470Z,35.10
2019-04-11T04:01:31.988Z,34.80
2019-04-11T04:04:02.803Z,33.07
2019-04-11T04:06:43.271Z,32.83
2019-04-11T04:09:17.087Z,35.37
2019-04-11T04:11:54.438Z,33.87
2019-04-11T04:14:42.879Z,36.10
2019-04-11T04:17:28.534Z,35.07
2019-04-11T04:20:33.041Z,37.10
2019-04-11T04:23:25.076Z,34.83
2019-04-11T04:25:55.277Z,34.10
2019-04-11T04:28:25.093Z,34.70
2019-04-11T04:30:54.931Z,36.33
2019-04-11T04:33:26.595Z,35.17
2019-04-11T04:35:58.022Z,35.27
2019-04-11T04:38:33.756Z,35.43
2019-04-11T04:41:19.957Z,35.13
2019-04-11T04:43:43.548Z,35.97
2019-04-11T04:46:36.513Z,36.90
2019-04-11T04:48:51.522Z,35.33
2019-04-11T04:51:24.123Z,36.63
2019-04-11T04:54:08.113Z,36.97
2019-04-11T04:56:34.759Z,36.37
2019-04-11T04:59:06.980Z,37.17
2019-04-11T05:01:37.355Z,38.40
2019-04-11T05:04:09.154Z,37.37
2019-04-11T05:06:40.880Z,35.37
2019-04-11T05:09:14.834Z,37.17
2019-04-11T05:11:44.735Z,37.57
2019-04-11T05:14:16.361Z,37.40
2019-04-11T05:16:58.104Z,37.70
2019-04-11T05:19:29.910Z,36.90
2019-04-11T05:22:17.663Z,35.60
2019-04-11T05:25:01.733Z,37.60
2019-04-11T05:27:29.996Z,37.63
2019-04-11T05:30:20.382Z,36.67
2019-04-11T05:33:25.814Z,37.37
2019-04-11T05:35:58.540Z,37.20
2019-04-11T05:38:52.666Z,37.57
2019-04-11T05:41:46.713Z,36.27
2019-04-11T05:44:17.129Z,36.57
2019-04-11T05:46:54.816Z,36.97
2019-04-11T05:49:47.125Z,36.40
2019-04-11T05:52:20.865Z,35.37
2019-04-11T05:55:04.920Z,36.50
2019-04-11T05:57:40.428Z,36.47
2019-04-11T06:00:28.413Z,38.60
2019-04-11T06:03:05.732Z,37.17
2019-04-11T06:05:59.906Z,36.97
2019-04-11T06:08:30.778Z,38.27
2019-04-11T06:11:24.178Z,36.37
2019-04-11T06:14:24.916Z,35.83
2019-04-11T06:17:05.191Z,36.00
2019-04-11T06:19:53.771Z,36.47
2019-04-11T06:22:25.806Z,35.10
2019-04-11T06:25:17.154Z,34.50
2019-04-11T06:27:59.964Z,33.50
2019-04-11T06:30:48.890Z,34.07
2019-04-11T06:33:37.483Z,34.67
2019-04-11T06:36:28.485Z,33.90
2019-04-11T06:39:23.062Z,35.10
2019-04-11T06:42:04.136Z,33.50
2019-04-11T06:44:58.668Z,32.67
2019-04-11T06:47:53.156Z,35.90
2019-04-11T06:51:09.104Z,33.90
2019-04-11T06:53:46.381Z,32.20
2019-04-11T06:56:41.235Z,31.40
2019-04-11T06:59:20.605Z,32.83
2019-04-11T07:02:07.542Z,32.90
2019-04-11T07:04:39.934Z,31.93
2019-04-11T07:07:13.095Z,32.23
2019-04-11T07:09:53.471Z,33.37
2019-04-11T07:12:59.358Z,32.40
2019-04-11T07:15:52.778Z,31.10
2019-04-11T07:18:54.832Z,31.80
2019-04-11T07:21:37.670Z,31.67
2019-04-11T07:24:48.169Z,32.87
2019-04-11T07:27:57.183Z,31.13
2019-04-11T07:30:53.653Z,33.27
2019-04-11T07:33:59.143Z,31.57
2019-04-11T07:36:46.323Z,32.80
2019-04-11T07:39:35.486Z,31.80
2019-04-11T07:42:43.358Z,31.63
2019-04-11T07:45:18.692Z,31.80
2019-04-11T07:47:58.150Z,32.53
2019-04-11T07:50:27.886Z,30.97
2019-04-11T07:53:01.456Z,31.53
2019-04-11T07:55:35.022Z,33.37
2019-04-11T07:58:31.563Z,33.40
2019-04-11T08:01:22.042Z,32.07
2019-04-11T08:04:17.281Z,33.47
2019-04-11T08:07:02.941Z,30.87
2019-04-11T08:09:53.016Z,30.90
2019-04-11T08:12:43.146Z,31.80
2019-04-11T08:15:33.484Z,33.07
2019-04-11T08:18:26.418Z,32.90
2019-04-11T08:21:35.346Z,33.03
2019-04-11T08:24:45.191Z,31.93
2019-04-11T08:27:54.910Z,30.23
2019-04-11T08:30:33.081Z,30.43
2019-04-11T08:33:07.482Z,31.67
2019-04-11T08:35:57.140Z,33.40
2019-04-11T08:38:36.660Z,29.13
2019-04-11T08:41:29.997Z,31.50
2019-04-11T08:43:59.889Z,31.10
2019-04-11T08:46:33.633Z,30.87
2019-04-11T08:49:05.683Z,30.93
2019-04-11T08:51:35.746Z,29.73
2019-04-11T08:54:31.338Z,30.57
2019-04-11T08:57:03.366Z,30.93
2019-04-11T08:59:51.899Z,31.43
2019-04-11T09:02:33.266Z,30.67
2019-04-11T09:05:33.348Z,30.77
2019-04-11T09:08:30.077Z,31.80
2019-04-11T09:11:17.009Z,32.10
2019-04-11T09:14:06.105Z,30.67
2019-04-11T09:16:54.093Z,29.53
2019-04-11T09:19:43.114Z,30.30
2019-04-11T09:22:49.673Z,28.33
2019-04-11T09:25:37.113Z,31.03
2019-04-11T09:28:11.352Z,30.50
2019-04-11T09:31:01.056Z,31.70
2019-04-11T09:34:03.621Z,30.30
2019-04-11T09:36:40.903Z,33.03
2019-04-11T09:39:45.554Z,29.83
2019-04-11T09:42:28.409Z,30.13
2019-04-11T09:45:15.478Z,32.67
2019-04-11T09:48:13.456Z,31.33
2019-04-11T09:50:55.137Z,31.83
2019-04-11T09:53:30.339Z,31.03
2019-04-11T09:56:33.684Z,30.50
2019-04-11T09:59:16.411Z,32.30
2019-04-11T10:02:41.993Z,33.27
2019-04-11T10:05:35.689Z,32.73
2019-04-11T10:08:13.331Z,32.23
2019-04-11T10:11:04.155Z,30.60
2019-04-11T10:14:01.760Z,31.03
2019-04-11T10:17:08.737Z,31.93
2019-04-11T10:20:04.526Z,30.87
2019-04-11T10:23:27.053Z,28.90
2019-04-11T10:26:03.415Z,30.43
2019-04-11T10:29:04.378Z,29.87
2019-04-11T10:31:36.751Z,29.87
2019-04-11T10:34:35.417Z,30.97
2019-04-11T10:37:35.877Z,31.50
2019-04-11T10:40:28.126Z,29.53
2019-04-11T10:42:58.202Z,28.40
2019-04-11T10:45:55.753Z,28.30
2019-04-11T10:48:35.606Z,29.17
2019-04-11T10:51:17.297Z,27.47
2019-04-11T10:53:52.644Z,27.33
2019-04-11T10:56:41.790Z,28.10
2019-04-11T10:59:15.984Z,29.53
2019-04-11T11:02:17.735Z,28.53
2019-04-11T11:04:56.798Z,29.67
2019-04-11T11:07:59.220Z,27.20
2019-04-11T11:10:33.250Z,26.87
2019-04-11T11:13:27.482Z,28.67
2019-04-11T11:16:00.161Z,27.90
2019-04-11T11:19:15.652Z,28.47
2019-04-11T11:21:31.832Z,28.93
2019-04-11T11:24:30.107Z,29.23
2019-04-11T11:27:04.520Z,28.53
2019-04-11T11:30:13.141Z,28.67
2019-04-11T11:32:45.350Z,29.53
2019-04-11T11:35:37.054Z,29.17
2019-04-11T11:38:09.370Z,28.93
2019-04-11T11:41:08.062Z,28.73
2019-04-11T11:43:37.701Z,30.00
2019-04-11T11:46:38.294Z,30.30
2019-04-11T11:49:38.873Z,27.57
2019-04-11T11:52:11.090Z,28.53
2019-04-11T11:54:55.648Z,28.60
2019-04-11T11:58:16.809Z,29.70
2019-04-11T12:00:46.263Z,29.03
2019-04-11T12:04:00.160Z,28.47
2019-04-11T12:06:29.194Z,29.87
2019-04-11T12:09:15.820Z,30.63
2019-04-11T12:11:56.994Z,28.63
2019-04-11T12:14:45.335Z,28.60
2019-04-11T12:17:25.239Z,28.63
2019-04-11T12:20:19.160Z,27.03
2019-04-11T12:23:48.502Z,28.40
2019-04-11T12:26:13.669Z,28.60
2019-04-11T12:29:34.357Z,29.90
2019-04-11T12:32:08.366Z,28.70
2019-04-11T12:34:57.725Z,29.37
2019-04-11T12:37:39.706Z,27.80
2019-04-11T12:40:29.602Z,28.33
2019-04-11T12:43:07.634Z,30.57
2019-04-11T12:46:05.658Z,28.57
2019-04-11T12:48:46.733Z,27.47
2019-04-11T12:51:34.447Z,28.07
2019-04-11T12:57:01.658Z,27.60
2019-04-11T12:59:37.717Z,29.60
2019-04-11T13:02:27.243Z,30.13
2019-04-11T13:04:58.462Z,30.27
2019-04-11T13:07:51.165Z,29.87
2019-04-11T13:10:30.074Z,29.00
2019-04-11T13:13:18.757Z,28.23
2019-04-11T13:16:12.746Z,29.27
2019-04-11T13:19:05.988Z,28.97
2019-04-11T13:21:54.415Z,33.37
2019-04-11T13:24:40.378Z,29.10
2019-04-11T13:27:16.431Z,28.70
2019-04-11T13:30:05.014Z,29.53
2019-04-11T13:33:01.758Z,28.43
2019-04-11T13:36:04.803Z,30.10
2019-04-11T13:38:40.259Z,27.87
2019-04-11T13:41:30.456Z,28.37
2019-04-11T13:44:09.877Z,29.13
2019-04-11T13:47:15.059Z,28.93
2019-04-11T13:50:16.795Z,27.77
2019-04-11T13:52:56.562Z,27.40
2019-04-11T13:55:43.417Z,29.43
2019-04-11T13:58:30.299Z,28.03
2019-04-11T14:01:01.198Z,29.67
2019-04-11T14:03:58.210Z,28.07
2019-04-11T14:06:35.049Z,27.80
2019-04-11T14:09:38.378Z,28.53
2019-04-11T14:12:12.227Z,29.47
2019-04-11T14:15:14.446Z,28.30
2019-04-11T14:18:01.493Z,29.87
2019-04-11T14:20:56.782Z,28.07
2019-04-11T14:24:16.939Z,28.60
2019-04-11T14:27:24.317Z,26.47
2019-04-11T14:30:18.580Z,28.07
2019-04-11T14:32:49.316Z,27.53
2019-04-11T14:35:49.895Z,28.20
2019-04-11T14:38:21.123Z,26.87
2019-04-11T14:41:21.481Z,27.77
2019-04-11T14:43:56.675Z,25.83
2019-04-11T14:46:46.589Z,27.33
2019-04-11T14:49:23.040Z,27.23
2019-04-11T14:52:29.822Z,28.43
2019-04-11T14:55:01.646Z,27.90
2019-04-11T14:58:09.952Z,28.03
2019-04-11T15:00:43.291Z,27.83
2019-04-11T15:03:27.725Z,27.93
2019-04-11T15:06:04.788Z,29.67
2019-04-11T15:08:54.049Z,29.03
2019-04-11T15:11:44.168Z,27.63
2019-04-11T15:14:35.935Z,28.63
2019-04-11T15:17:24.421Z,28.30
2019-04-11T15:20:05.031Z,28.53
2019-04-11T15:22:49.265Z,29.03
2019-04-11T15:25:40.625Z,29.37
2019-04-11T15:28:34.959Z,30.07
2019-04-11T15:31:23.934Z,30.03
2019-04-11T15:34:11.150Z,28.27
2019-04-11T15:36:44.929Z,29.17
2019-04-11T15:39:44.115Z,28.77
2019-04-11T15:42:26.793Z,29.47
2019-04-11T15:45:14.022Z,28.47
2019-04-11T15:47:50.596Z,29.30
2019-04-11T15:50:49.833Z,28.53
2019-04-11T15:53:27.363Z,30.87
2019-04-11T15:56:15.824Z,28.80
2019-04-11T15:58:50.001Z,30.53
2019-04-11T16:01:47.201Z,29.47
2019-04-11T16:04:31.349Z,29.07
2019-04-11T16:07:26.129Z,29.70
2019-04-11T16:09:56.993Z,29.50
2019-04-11T16:12:56.972Z,29.27
2019-04-11T16:15:35.624Z,29.37
2019-04-11T16:18:27.493Z,29.53
2019-04-11T16:20:58.861Z,28.10
2019-04-11T16:23:46.519Z,30.27
2019-04-11T16:26:21.569Z,28.50
2019-04-11T16:29:18.659Z,30.80
2019-04-11T16:31:54.766Z,28.77
2019-04-11T16:34:59.067Z,29.27
2019-04-11T16:37:28.956Z,28.73
2019-04-11T16:40:43.672Z,29.90
2019-04-11T16:43:14.765Z,29.80
2019-04-11T16:46:18.652Z,29.70
2019-04-11T16:48:51.133Z,29.83
2019-04-11T16:51:30.887Z,29.57
2019-04-11T16:54:09.556Z,29.83
2019-04-11T16:56:41.726Z,29.13
2019-04-11T16:59:12.781Z,31.00
2019-04-11T17:01:42.937Z,28.60
2019-04-11T17:04:18.409Z,28.93
2019-04-11T17:06:57.911Z,27.87
2019-04-11T17:09:42.225Z,28.83
2019-04-11T17:12:17.773Z,29.13
2019-04-11T17:15:30.621Z,28.73
2019-04-11T17:18:05.825Z,28.77
2019-04-11T17:21:00.172Z,28.53
2019-04-11T17:23:38.770Z,29.80
2019-04-11T17:26:11.281Z,27.67
2019-04-11T17:29:00.955Z,27.93
2019-04-11T17:31:34.713Z,27.03
2019-04-11T17:34:05.635Z,28.60
2019-04-11T17:36:37.225Z,27.83
2019-04-11T17:39:13.825Z,27.60
2019-04-11T17:41:44.538Z,28.40
2019-04-11T17:44:17.463Z,29.67
2019-04-11T17:47:26.786Z,28.60
2019-04-11T17:49:55.908Z,29.43
2019-04-11T17:52:27.278Z,28.27
2019-04-11T17:55:00.126Z,27.93
2019-04-11T17:57:30.554Z,28.63
2019-04-11T18:00:00.312Z,29.07
2019-04-11T18:02:42.045Z,29.00
2019-04-11T18:05:17.190Z,29.43
2019-04-11T18:07:51.423Z,29.37
2019-04-11T18:10:25.553Z,29.23
2019-04-11T18:13:02.384Z,30.30
2019-04-11T18:15:37.201Z,29.40
2019-04-11T18:18:11.357Z,28.93
2019-04-11T18:20:55.345Z,27.37
2019-04-11T18:24:07.712Z,29.50
2019-04-11T18:27:08.548Z,31.00
2019-04-11T18:29:38.354Z,29.73
2019-04-11T18:32:10.536Z,29.90
2019-04-11T18:35:05.543Z,29.37
2019-04-11T18:37:37.837Z,29.77
2019-04-11T18:40:21.781Z,31.93
2019-04-11T18:42:52.057Z,29.73
2019-04-11T18:48:13.669Z,30.77
2019-04-11T18:51:04.188Z,31.13
2019-04-11T18:53:55.797Z,32.80
2019-04-11T18:56:28.083Z,30.27
2019-04-11T18:59:29.284Z,30.17
2019-04-11T19:02:19.349Z,30.70
2019-04-11T19:04:57.934Z,32.40
2019-04-11T19:07:50.131Z,30.53
2019-04-11T19:10:25.099Z,32.40
2019-04-11T19:13:03.071Z,31.40
2019-04-11T19:15:56.964Z,32.87
2019-04-11T19:18:54.444Z,32.07
2019-04-11T19:21:30.342Z,32.93
2019-04-11T19:24:00.827Z,31.67
2019-04-11T19:26:32.392Z,32.07
2019-04-11T19:29:34.102Z,31.33
2019-04-11T19:32:12.102Z,31.80
2019-04-11T19:34:42.295Z,32.43
2019-04-11T19:38:21.682Z,32.93
2019-04-11T19:40:26.672Z,33.13
2019-04-11T19:42:56.316Z,31.43
2019-04-11T19:45:35.101Z,33.40
2019-04-11T19:48:32.089Z,33.97
2019-04-11T19:51:17.120Z,32.03
2019-04-11T19:53:55.555Z,32.53
2019-04-11T19:57:10.564Z,35.83
2019-04-11T19:59:42.604Z,34.17
2019-04-11T20:02:32.465Z,34.47
2019-04-11T20:05:13.547Z,35.23
2019-04-11T20:08:05.653Z,35.50
2019-04-11T20:11:01.004Z,34.00
2019-04-11T20:13:32.339Z,32.87
2019-04-11T20:16:01.736Z,34.40
2019-04-11T20:18:37.666Z,34.90
2019-04-11T20:21:24.646Z,33.73
2019-04-11T20:24:29.589Z,34.30
2019-04-11T20:27:00.003Z,34.30
2019-04-11T20:29:57.561Z,34.17
2019-04-11T20:32:33.069Z,32.50
2019-04-11T20:35:02.680Z,32.10
2019-04-11T20:37:39.249Z,35.37
2019-04-11T20:40:06.619Z,33.87
2019-04-11T20:42:48.002Z,33.33
2019-04-11T20:45:20.698Z,33.40
2019-04-11T20:47:50.312Z,33.27
2019-04-11T20:53:55.187Z,33.77
2019-04-11T20:56:46.035Z,34.10
2019-04-11T20:59:34.613Z,32.07
2019-04-11T21:02:04.490Z,35.07
2019-04-11T21:04:54.324Z,31.73
2019-04-11T21:07:47.092Z,34.10
2019-04-11T21:10:19.578Z,33.43
2019-04-11T21:13:12.515Z,34.87
2019-04-11T21:15:48.632Z,33.30
2019-04-11T21:18:18.408Z,33.30
2019-04-11T21:21:05.008Z,33.43
2019-04-11T21:23:57.993Z,31.17
2019-04-11T21:26:29.513Z,31.73
2019-04-11T21:29:05.457Z,33.73
2019-04-11T21:31:43.692Z,30.90
2019-04-11T21:34:13.469Z,34.03
2019-04-11T21:36:50.940Z,33.53
2019-04-11T21:39:21.460Z,35.00
2019-04-11T21:41:51.364Z,31.83
2019-04-11T21:44:24.726Z,33.63
2019-04-11T21:46:55.326Z,33.43
2019-04-11T21:49:28.802Z,35.13
2019-04-11T21:52:12.021Z,32.33
2019-04-11T21:54:45.120Z,34.43
2019-04-11T21:57:10.646Z,32.00
2019-04-11T21:59:40.265Z,33.60
2019-04-11T22:02:16.314Z,34.67
2019-04-11T22:04:51.046Z,34.10
2019-04-11T22:07:25.344Z,33.43
2019-04-11T22:09:58.943Z,34.33
2019-04-11T22:12:48.577Z,34.20
2019-04-11T22:15:20.074Z,32.50
2019-04-11T22:17:50.235Z,34.87
2019-04-11T22:20:25.041Z,34.40
2019-04-11T22:23:17.754Z,33.80
2019-04-11T22:25:52.286Z,32.23
2019-04-11T22:28:25.026Z,33.37
2019-04-11T22:31:25.062Z,34.07
2019-04-11T22:34:02.466Z,33.20
2019-04-11T22:36:36.586Z,33.37
2019-04-11T22:39:18.433Z,34.47
2019-04-11T22:41:58.151Z,33.50
2019-04-11T22:44:29.101Z,33.40
2019-04-11T22:46:58.974Z,32.87
2019-04-11T22:49:29.734Z,35.50
2019-04-11T22:52:17.301Z,33.67
2019-04-11T22:55:11.300Z,34.50
2019-04-11T22:58:09.461Z,34.70
2019-04-11T23:01:14.025Z,36.07
2019-04-11T23:03:53.492Z,33.23
2019-04-11T23:06:23.422Z,33.13
2019-04-11T23:08:55.760Z,34.87
2019-04-11T23:11:29.217Z,31.90
2019-04-11T23:14:04.116Z,32.17
2019-04-11T23:17:01.105Z,32.20
2019-04-11T23:19:37.840Z,31.00
2019-04-11T23:22:21.355Z,32.57
2019-04-11T23:24:55.655Z,33.73
2019-04-11T23:27:27.684Z,32.37
2019-04-11T23:30:04.638Z,32.37
2019-04-11T23:32:35.498Z,32.60
2019-04-11T23:35:05.194Z,32.87
2019-04-11T23:37:51.229Z,32.03
2019-04-11T23:40:43.787Z,32.67
2019-04-11T23:43:44.905Z,32.70
2019-04-11T23:46:18.925Z,31.20
2019-04-11T23:48:55.491Z,31.13
2019-04-11T23:51:26.296Z,29.87
2019-04-11T23:53:58.859Z,30.20
2019-04-11T23:56:30.595Z,29.83
2019-04-11T23:59:01.550Z,29.93
